createdAt,value
2018-11-26T00:02:00.097Z,100778.50
2018-11-26T00:05:26.324Z,100775.42
2018-11-26T00:08:52.536Z,100769.19
2018-11-26T00:12:19.120Z,100766.72
2018-11-26T00:15:45.386Z,100760.27
2018-11-26T00:19:11.565Z,100764.38
2018-11-26T00:22:37.800Z,100757.98
2018-11-26T00:26:04.020Z,100757.38
2018-11-26T00:29:30.357Z,100762.25
2018-11-26T00:32:56.577Z,100757.73
2018-11-26T00:36:22.765Z,100762.20
2018-11-26T00:39:49.336Z,100762.17
2018-11-26T00:43:15.572Z,100757.81
2018-11-26T00:46:41.796Z,100757.47
2018-11-26T00:50:09.715Z,100755.59
2018-11-26T00:53:35.937Z,100757.02
2018-11-26T00:57:02.121Z,100748.34
2018-11-26T01:00:28.366Z,100750.14
2018-11-26T01:03:55.013Z,100742.14
2018-11-26T01:07:21.227Z,100733.99
2018-11-26T01:10:47.446Z,100737.69
2018-11-26T01:14:14.041Z,100737.56
2018-11-26T01:17:40.244Z,100736.84
2018-11-26T01:21:06.524Z,100733.27
2018-11-26T01:24:32.763Z,100730.09
2018-11-26T01:27:59.006Z,100736.62
2018-11-26T01:31:25.175Z,100739.11
2018-11-26T01:34:51.413Z,100754.83
2018-11-26T01:38:18.751Z,100751.47
2018-11-26T01:41:45.378Z,100755.55
2018-11-26T01:45:12.096Z,100751.53
2018-11-26T01:48:38.367Z,100750.12
2018-11-26T01:52:04.658Z,100755.45
2018-11-26T01:55:30.907Z,100753.41
2018-11-26T01:58:57.134Z,100753.88
2018-11-26T02:02:23.348Z,100758.53
2018-11-26T02:05:49.593Z,100754.81
2018-11-26T02:09:15.819Z,100756.31
2018-11-26T02:12:42.095Z,100764.12
2018-11-26T02:16:08.408Z,100763.05
2018-11-26T02:19:34.671Z,100754.51
2018-11-26T02:23:01.070Z,100754.40
2018-11-26T02:26:27.810Z,100752.11
2018-11-26T02:29:54.077Z,100749.06
2018-11-26T02:33:20.608Z,100751.03
2018-11-26T02:36:47.183Z,100753.88
2018-11-26T02:40:31.707Z,100746.92
2018-11-26T02:43:57.873Z,100745.92
2018-11-26T02:47:24.346Z,100749.92
2018-11-26T02:50:50.841Z,100750.72
2018-11-26T02:54:17.053Z,100742.67
2018-11-26T02:57:43.585Z,100740.45
2018-11-26T03:01:09.963Z,100737.16
2018-11-26T03:04:36.231Z,100732.56
2018-11-26T03:08:02.786Z,100741.41
2018-11-26T03:11:29.097Z,100739.17
2018-11-26T03:14:55.370Z,100734.63
2018-11-26T03:18:21.552Z,100740.92
2018-11-26T03:21:47.791Z,100742.17
2018-11-26T03:25:14.400Z,100739.41
2018-11-26T03:28:40.613Z,100741.09
2018-11-26T03:32:06.863Z,100744.16
2018-11-26T03:35:33.060Z,100747.22
2018-11-26T03:38:59.259Z,100746.05
2018-11-26T03:42:25.492Z,100755.13
2018-11-26T03:45:51.704Z,100755.94
2018-11-26T03:49:17.894Z,100754.90
2018-11-26T03:52:45.476Z,100759.40
2018-11-26T03:56:11.697Z,100756.80
2018-11-26T03:59:38.253Z,100759.23
2018-11-26T04:03:04.495Z,100757.97
2018-11-26T04:06:31.002Z,100758.84
2018-11-26T04:09:57.275Z,100764.12
2018-11-26T04:13:23.536Z,100762.09
2018-11-26T04:16:49.757Z,100766.51
2018-11-26T04:20:15.992Z,100763.98
2018-11-26T04:23:42.221Z,100769.83
2018-11-26T04:27:08.593Z,100769.80
2018-11-26T04:30:34.792Z,100772.22
2018-11-26T04:34:01.342Z,100764.12
2018-11-26T04:37:27.980Z,100765.83
2018-11-26T04:40:54.225Z,100762.69
2018-11-26T04:44:20.463Z,100765.91
2018-11-26T04:47:46.697Z,100768.14
2018-11-26T04:51:13.361Z,100763.81
2018-11-26T04:54:39.583Z,100764.27
2018-11-26T04:58:06.181Z,100770.13
2018-11-26T05:01:32.397Z,100762.37
2018-11-26T05:04:58.597Z,100757.08
2018-11-26T05:08:24.826Z,100758.67
2018-11-26T05:11:51.104Z,100753.30
2018-11-26T05:15:17.369Z,100749.55
2018-11-26T05:18:43.560Z,100750.70
2018-11-26T05:22:10.121Z,100755.22
2018-11-26T05:25:36.355Z,100750.61
2018-11-26T05:29:02.987Z,100754.31
2018-11-26T05:32:29.218Z,100751.66
2018-11-26T05:35:55.484Z,100750.41
2018-11-26T05:39:21.712Z,100752.39
2018-11-26T05:42:47.923Z,100756.97
2018-11-26T05:46:14.157Z,100757.86
2018-11-26T05:49:40.648Z,100758.23
2018-11-26T05:53:07.480Z,100763.22
2018-11-26T05:56:33.739Z,100755.67
2018-11-26T05:59:59.958Z,100763.72
2018-11-26T06:03:26.189Z,100762.81
2018-11-26T06:06:52.390Z,100763.72
2018-11-26T06:10:18.731Z,100768.44
2018-11-26T06:13:44.992Z,100767.95
2018-11-26T06:17:11.226Z,100768.13
2018-11-26T06:20:37.545Z,100771.03
2018-11-26T06:24:04.007Z,100781.37
2018-11-26T06:27:30.906Z,100776.34
2018-11-26T06:30:57.573Z,100773.67
2018-11-26T06:34:23.819Z,100777.98
2018-11-26T06:37:50.432Z,100782.28
2018-11-26T06:41:16.582Z,100784.12
2018-11-26T06:44:42.800Z,100789.09
2018-11-26T06:48:09.131Z,100791.00
2018-11-26T06:51:35.324Z,100790.14
2018-11-26T06:55:01.549Z,100795.33
2018-11-26T06:58:27.743Z,100798.65
2018-11-26T07:01:53.937Z,100810.76
2018-11-26T07:05:21.915Z,100807.39
2018-11-26T07:08:48.603Z,100813.13
2018-11-26T07:12:15.197Z,100816.85
2018-11-26T07:15:41.478Z,100816.29
2018-11-26T07:19:08.048Z,100823.94
2018-11-26T07:22:34.261Z,100829.61
2018-11-26T07:26:00.606Z,100827.41
2018-11-26T07:29:27.043Z,100838.04
2018-11-26T07:32:53.193Z,100834.41
2018-11-26T07:36:19.520Z,100840.94
2018-11-26T07:39:45.786Z,100843.23
2018-11-26T07:43:15.832Z,100845.05
2018-11-26T07:47:14.868Z,100854.51
2018-11-26T07:50:39.689Z,100853.55
2018-11-26T07:54:04.508Z,100859.17
2018-11-26T07:57:29.212Z,100853.17
2018-11-26T08:00:53.937Z,100863.12
2018-11-26T08:04:18.683Z,100864.36
2018-11-26T08:07:43.493Z,100864.08
2018-11-26T08:11:08.887Z,100869.92
2018-11-26T08:14:33.625Z,100873.89
2018-11-26T08:17:58.498Z,100875.57
2018-11-26T08:21:23.245Z,100882.89
2018-11-26T08:24:48.044Z,100887.25
2018-11-26T08:28:12.717Z,100887.48
2018-11-26T08:31:37.514Z,100893.86
2018-11-26T08:35:02.236Z,100892.58
2018-11-26T08:38:30.982Z,100896.44
2018-11-26T08:41:55.776Z,100897.39
2018-11-26T08:45:25.143Z,100901.31
2018-11-26T08:48:55.119Z,100903.75
2018-11-26T08:52:20.410Z,100907.37
2018-11-26T08:55:45.183Z,100909.73
2018-11-26T08:59:10.011Z,100909.01
2018-11-26T09:02:38.765Z,100913.83
2018-11-26T09:06:04.271Z,100920.83
2018-11-26T09:09:32.749Z,100926.27
2018-11-26T09:12:53.855Z,100920.45
2018-11-26T09:16:18.616Z,100928.00
2018-11-26T09:19:43.497Z,100926.06
2018-11-26T09:23:08.288Z,100931.55
2018-11-26T09:26:33.022Z,100931.70
2018-11-26T09:29:57.810Z,100937.97
2018-11-26T09:33:22.635Z,100941.76
2018-11-26T09:36:47.510Z,100946.97
2018-11-26T09:40:14.525Z,100950.59
2018-11-26T09:43:39.311Z,100957.59
2018-11-26T09:47:09.693Z,100954.66
2018-11-26T09:50:34.536Z,100956.55
2018-11-26T09:53:59.342Z,100961.09
2018-11-26T09:57:24.116Z,100958.37
2018-11-26T10:00:48.866Z,100956.78
2018-11-26T10:04:13.701Z,100960.95
2018-11-26T10:07:38.475Z,100961.39
2018-11-26T10:11:03.325Z,100963.45
2018-11-26T10:14:28.020Z,100966.44
2018-11-26T10:17:53.144Z,100969.61
2018-11-26T10:21:17.934Z,100969.31
2018-11-26T10:24:42.764Z,100973.12
2018-11-26T10:28:07.574Z,100973.05
2018-11-26T10:31:32.367Z,100968.55
2018-11-26T10:34:57.173Z,100969.13
2018-11-26T10:38:21.964Z,100965.05
2018-11-26T10:41:46.742Z,100969.47
2018-11-26T10:45:13.353Z,100974.36
2018-11-26T10:48:38.146Z,100976.56
2018-11-26T10:52:02.935Z,100973.30
2018-11-26T10:55:35.689Z,100972.39
2018-11-26T10:59:00.505Z,100969.56
2018-11-26T11:02:30.395Z,100975.42
2018-11-26T11:05:55.339Z,100974.47
2018-11-26T11:09:20.141Z,100975.80
2018-11-26T11:12:44.968Z,100978.88
2018-11-26T11:16:09.842Z,100984.92
2018-11-26T11:19:34.626Z,100976.56
2018-11-26T11:22:59.493Z,100981.71
2018-11-26T11:26:24.286Z,100990.64
2018-11-26T11:29:49.051Z,100980.50
2018-11-26T11:36:37.633Z,100978.59
2018-11-26T11:40:02.471Z,100979.31
2018-11-26T11:43:27.296Z,100977.09
2018-11-26T11:46:52.136Z,100975.88
2018-11-26T11:50:18.754Z,100974.70
2018-11-26T11:53:43.546Z,100968.75
2018-11-26T11:57:08.380Z,100968.45
2018-11-26T12:00:40.509Z,100969.99
2018-11-26T12:04:05.985Z,100968.08
2018-11-26T12:07:30.811Z,100969.08
2018-11-26T12:10:55.566Z,100974.78
2018-11-26T12:14:20.380Z,100959.89
2018-11-26T12:17:46.302Z,100974.11
2018-11-26T12:21:11.119Z,100967.35
2018-11-26T12:24:35.874Z,100973.50
2018-11-26T12:28:00.701Z,100969.78
2018-11-26T12:31:25.536Z,100966.80
2018-11-26T12:34:50.304Z,100963.95
2018-11-26T12:38:15.141Z,100959.83
2018-11-26T12:41:40.025Z,100959.77
2018-11-26T12:45:06.273Z,100968.06
2018-11-26T12:48:31.145Z,100961.81
2018-11-26T12:51:55.856Z,100963.25
2018-11-26T12:55:22.070Z,100967.67
2018-11-26T12:58:46.845Z,100970.61
2018-11-26T13:02:11.739Z,100966.64
2018-11-26T13:05:36.616Z,100963.69
2018-11-26T13:09:01.425Z,100961.09
2018-11-26T13:12:26.305Z,100958.02
2018-11-26T13:15:51.139Z,100965.95
2018-11-26T13:19:15.939Z,100959.37
2018-11-26T13:22:40.757Z,100956.88
2018-11-26T13:26:05.679Z,100957.54
2018-11-26T13:29:30.592Z,100961.74
2018-11-26T13:32:58.125Z,100956.12
2018-11-26T13:36:23.124Z,100960.56
2018-11-26T13:39:47.930Z,100966.01
2018-11-26T13:43:17.128Z,100967.29
2018-11-26T13:46:41.936Z,100969.98
2018-11-26T13:50:09.929Z,100967.58
2018-11-26T13:53:34.673Z,100971.33
2018-11-26T13:56:59.377Z,100972.73
2018-11-26T14:00:24.181Z,100977.81
2018-11-26T14:03:48.957Z,100974.23
2018-11-26T14:07:13.640Z,100981.59
2018-11-26T14:10:38.385Z,100989.96
2018-11-26T14:14:03.131Z,100986.46
2018-11-26T14:17:27.854Z,100991.11
2018-11-26T14:20:52.650Z,100996.16
2018-11-26T14:24:17.370Z,100996.55
2018-11-26T14:27:43.352Z,101002.98
2018-11-26T14:31:08.182Z,101008.05
2018-11-26T14:34:32.916Z,101013.98
2018-11-26T14:38:00.272Z,101019.36
2018-11-26T14:41:24.989Z,101018.75
2018-11-26T14:44:50.456Z,101022.12
2018-11-26T14:48:15.290Z,101018.30
2018-11-26T14:51:40.106Z,101026.39
2018-11-26T14:55:05.531Z,101024.84
2018-11-26T14:58:30.239Z,101027.70
2018-11-26T15:01:54.985Z,101024.20
2018-11-26T15:05:19.768Z,101027.95
2018-11-26T15:08:44.550Z,101027.72
2018-11-26T15:12:09.322Z,101030.67
2018-11-26T15:15:33.991Z,101028.23
2018-11-26T15:18:58.931Z,101033.13
2018-11-26T15:22:24.886Z,101036.68
2018-11-26T15:25:49.804Z,101039.39
2018-11-26T15:29:14.940Z,101040.34
2018-11-26T15:32:40.209Z,101040.17
2018-11-26T15:36:04.998Z,101041.52
2018-11-26T15:39:30.201Z,101049.83
2018-11-26T15:42:56.762Z,101046.10
2018-11-26T15:46:27.522Z,101050.91
2018-11-26T15:49:52.280Z,101052.02
2018-11-26T15:53:18.345Z,101059.86
2018-11-26T15:56:43.486Z,101058.55
2018-11-26T16:00:16.025Z,101061.12
2018-11-26T16:03:40.998Z,101067.83
2018-11-26T16:07:06.316Z,101066.61
2018-11-26T16:10:31.151Z,101070.02
2018-11-26T16:13:56.411Z,101072.05
2018-11-26T16:17:21.248Z,101073.78
2018-11-26T16:20:46.308Z,101071.25
2018-11-26T16:24:11.102Z,101069.47
2018-11-26T16:27:36.934Z,101071.58
2018-11-26T16:31:01.712Z,101070.16
2018-11-26T16:34:27.035Z,101067.23
2018-11-26T16:37:51.886Z,101069.36
2018-11-26T16:41:16.608Z,101080.02
2018-11-26T16:44:45.464Z,101086.80
2018-11-26T16:48:10.424Z,101091.22
2018-11-26T16:51:35.197Z,101095.39
2018-11-26T16:55:00.285Z,101103.28
2018-11-26T16:58:25.107Z,101105.18
2018-11-26T17:01:49.912Z,101108.30
2018-11-26T17:05:20.045Z,101113.35
2018-11-26T17:08:44.849Z,101110.16
2018-11-26T17:12:09.685Z,101106.84
2018-11-26T17:15:34.577Z,101116.55
2018-11-26T17:18:59.401Z,101119.03
2018-11-26T17:22:24.267Z,101123.48
2018-11-26T17:25:49.087Z,101127.95
2018-11-26T17:29:13.893Z,101132.75
2018-11-26T17:32:45.605Z,101139.02
2018-11-26T17:36:13.032Z,101141.85
2018-11-26T17:39:41.736Z,101147.58
2018-11-26T17:43:07.901Z,101151.73
2018-11-26T17:46:32.723Z,101152.15
2018-11-26T17:49:57.575Z,101155.08
2018-11-26T17:53:22.934Z,101160.66
2018-11-26T17:56:47.711Z,101164.16
2018-11-26T18:00:17.867Z,101165.09
2018-11-26T18:03:44.322Z,101162.77
2018-11-26T18:07:09.036Z,101173.89
2018-11-26T18:10:33.840Z,101180.61
2018-11-26T18:13:59.342Z,101179.22
2018-11-26T18:17:24.201Z,101179.72
2018-11-26T18:20:49.473Z,101186.91
2018-11-26T18:24:14.400Z,101189.05
2018-11-26T18:27:41.222Z,101193.00
2018-11-26T18:31:07.150Z,101198.72
2018-11-26T18:34:31.860Z,101205.28
2018-11-26T18:37:56.683Z,101206.47
2018-11-26T18:41:21.439Z,101214.58
2018-11-26T18:44:46.133Z,101218.27
2018-11-26T18:48:12.690Z,101223.96
2018-11-26T18:51:37.457Z,101233.19
2018-11-26T18:55:02.294Z,101241.12
2018-11-26T18:58:27.064Z,101242.78
2018-11-26T19:01:51.786Z,101247.13
2018-11-26T19:05:17.538Z,101246.26
2018-11-26T19:08:42.368Z,101251.68
2018-11-26T19:12:07.668Z,101246.33
2018-11-26T19:15:36.838Z,101249.73
2018-11-26T19:19:01.692Z,101251.55
2018-11-26T19:22:27.007Z,101255.62
2018-11-26T19:25:53.264Z,101250.34
2018-11-26T19:29:18.025Z,101261.06
2018-11-26T19:32:43.990Z,101261.07
2018-11-26T19:36:09.704Z,101268.02
2018-11-26T19:39:35.136Z,101273.38
2018-11-26T19:43:02.331Z,101277.14
2018-11-26T19:46:28.231Z,101277.14
2018-11-26T19:49:55.451Z,101273.92
2018-11-26T19:53:20.614Z,101281.55
2018-11-26T19:56:45.504Z,101285.91
2018-11-26T20:00:23.592Z,101283.30
2018-11-26T20:03:54.160Z,101289.12
2018-11-26T20:07:20.356Z,101289.19
2018-11-26T20:10:46.394Z,101290.45
2018-11-26T20:14:21.325Z,101296.12
2018-11-26T20:17:39.908Z,101303.38
2018-11-26T20:21:06.108Z,101306.06
2018-11-26T20:24:31.705Z,101307.72
2018-11-26T20:27:57.085Z,101308.19
2018-11-26T20:31:22.623Z,101308.02
2018-11-26T20:34:48.566Z,101312.81
2018-11-26T20:38:16.545Z,101311.89
2018-11-26T20:41:42.539Z,101314.73
2018-11-26T20:45:14.116Z,101315.94
2018-11-26T20:48:39.825Z,101319.02
2018-11-26T20:52:06.782Z,101318.72
2018-11-26T20:55:32.520Z,101325.02
2018-11-26T20:58:57.387Z,101325.97
2018-11-26T21:02:22.505Z,101331.47
2018-11-26T21:05:47.607Z,101334.36
2018-11-26T21:09:12.783Z,101328.30
2018-11-26T21:12:38.018Z,101329.67
2018-11-26T21:16:03.942Z,101338.53
2018-11-26T21:19:29.603Z,101334.05
2018-11-26T21:22:57.760Z,101339.39
2018-11-26T21:26:22.843Z,101339.39
2018-11-26T21:29:47.813Z,101344.12
2018-11-26T21:33:12.831Z,101342.94
2018-11-26T21:36:37.793Z,101350.94
2018-11-26T21:40:02.716Z,101356.03
2018-11-26T21:43:27.675Z,101359.09
2018-11-26T21:46:53.060Z,101354.91
2018-11-26T21:50:17.736Z,101352.64
2018-11-26T21:53:42.708Z,101356.11
2018-11-26T21:57:08.018Z,101363.25
2018-11-26T22:00:33.793Z,101363.37
2018-11-26T22:03:58.739Z,101366.50
2018-11-26T22:07:23.890Z,101369.58
2018-11-26T22:10:48.722Z,101365.84
2018-11-26T22:14:13.687Z,101374.14
2018-11-26T22:17:39.415Z,101377.59
2018-11-26T22:21:04.474Z,101376.14
2018-11-26T22:24:29.444Z,101379.95
2018-11-26T22:27:55.214Z,101381.69
2018-11-26T22:31:20.151Z,101385.82
2018-11-26T22:34:45.083Z,101389.57
2018-11-26T22:38:10.053Z,101385.52
2018-11-26T22:41:34.729Z,101385.82
2018-11-26T22:44:59.451Z,101387.36
2018-11-26T22:48:24.158Z,101398.05
2018-11-26T22:51:51.506Z,101404.06
2018-11-26T22:55:14.956Z,101402.58
2018-11-26T22:58:39.689Z,101400.51
2018-11-26T23:02:04.438Z,101400.17
2018-11-26T23:05:29.328Z,101400.98
2018-11-26T23:08:54.026Z,101406.27
2018-11-26T23:12:18.636Z,101408.02
2018-11-26T23:15:43.345Z,101406.07
2018-11-26T23:19:08.253Z,101413.85
2018-11-26T23:22:32.950Z,101415.69
2018-11-26T23:25:57.734Z,101425.48
2018-11-26T23:29:22.394Z,101422.78
2018-11-26T23:32:48.881Z,101421.55
2018-11-26T23:36:13.566Z,101420.10
2018-11-26T23:39:38.271Z,101423.01
2018-11-26T23:43:03.110Z,101426.70
2018-11-26T23:46:27.773Z,101432.57
2018-11-26T23:49:52.454Z,101430.63
2018-11-26T23:53:17.142Z,101433.87
2018-11-26T23:56:41.838Z,101438.30
